Time;durP1;ratioP1;P1;durP2;ratioP2;P2;SDS_P1;SDS_P2;PMS_P1;PMS_P2;Temp;Humidity;BMP_temperature;BMP_pressure;BME280_temperature;BME280_humidity;BME280_pressure;Samples;Min_cycle;Max_cycle;Signal;HPM_P1;HPM_P2
2023/08/17 04:07:43;;;;;;;16.80;15.27;;;;;;;22.08;100.00;100740.59;5606062;31;82909;-56
2023/08/17 04:10:46;;;;;;;17.62;15.93;;;;;;;22.08;100.00;100740.59;5583808;31;33244;-57
2023/08/17 04:13:48;;;;;;;17.08;15.35;;;;;;;21.50;100.00;100749.94;5583935;31;34326;-56
2023/08/17 04:16:53;;;;;;;16.35;14.75;;;;;;;21.51;100.00;100753.44;5586859;31;31792;-56
2023/08/17 04:19:55;;;;;;;15.73;14.30;;;;;;;21.59;100.00;100752.53;5602388;31;33563;-57
2023/08/17 04:22:58;;;;;;;15.95;14.35;;;;;;;21.70;100.00;100756.34;5599805;31;34326;-56
2023/08/17 04:26:00;;;;;;;16.85;14.68;;;;;;;21.60;100.00;100747.88;5603330;31;33253;-56
2023/08/17 04:29:03;;;;;;;16.90;14.05;;;;;;;21.67;100.00;100754.31;5589094;31;33950;-57
2023/08/17 04:32:06;;;;;;;14.13;12.82;;;;;;;21.74;100.00;100753.72;5564036;32;33178;-57
2023/08/17 04:35:10;;;;;;;14.98;13.57;;;;;;;21.79;100.00;100751.56;5563736;32;34041;-56
2023/08/17 04:38:12;;;;;;;15.57;13.93;;;;;;;21.72;100.00;100751.34;5566739;32;34379;-56
2023/08/17 04:41:15;;;;;;;16.67;13.40;;;;;;;21.74;100.00;100759.19;5583421;31;33511;-57
2023/08/17 04:44:17;;;;;;;15.15;13.65;;;;;;;21.78;100.00;100760.06;5568909;32;33618;-56
2023/08/17 04:47:20;;;;;;;15.27;13.38;;;;;;;21.79;100.00;100762.47;5563864;32;33257;-57
2023/08/17 04:50:22;;;;;;;15.95;14.32;;;;;;;21.81;100.00;100760.16;5563738;32;33638;-57
2023/08/17 04:53:25;;;;;;;14.65;13.25;;;;;;;21.86;100.00;100764.59;5582551;31;33569;-57
2023/08/17 04:56:27;;;;;;;16.98;12.88;;;;;;;21.89;100.00;100765.84;5582597;31;33484;-57
2023/08/17 04:59:30;;;;;;;17.42;14.02;;;;;;;21.90;100.00;100768.22;5582907;31;33530;-57
2023/08/17 05:02:32;;;;;;;14.38;12.70;;;;;;;21.91;100.00;100764.34;5579083;32;33639;-57
2023/08/17 05:05:35;;;;;;;15.10;13.57;;;;;;;22.01;100.00;100758.38;5563323;32;33501;-57
2023/08/17 05:08:39;;;;;;;13.77;12.43;;;;;;;22.07;100.00;100756.19;5563479;32;31814;-57
2023/08/17 05:11:42;;;;;;;14.55;12.05;;;;;;;22.09;100.00;100764.84;5564046;32;33938;-56
2023/08/17 05:14:45;;;;;;;17.27;12.90;;;;;;;22.12;100.00;100761.41;5564680;32;33721;-56
2023/08/17 05:17:48;;;;;;;20.40;12.07;;;;;;;22.15;100.00;100757.19;5556333;32;34534;-57
2023/08/17 05:20:51;;;;;;;14.30;12.68;;;;;;;22.23;100.00;100757.06;5550565;32;34336;-56
2023/08/17 05:23:54;;;;;;;15.00;11.90;;;;;;;22.35;100.00;100761.66;5550573;32;34371;-56
2023/08/17 05:26:56;;;;;;;13.85;11.23;;;;;;;22.46;100.00;100770.13;5561040;32;34315;-57
2023/08/17 05:29:58;;;;;;;14.07;11.65;;;;;;;22.52;100.00;100766.78;5569761;32;33661;-57
2023/08/17 05:33:01;;;;;;;14.75;12.55;;;;;;;22.61;100.00;100768.53;5569888;32;33847;-57
2023/08/17 05:36:04;;;;;;;14.18;12.75;;;;;;;22.56;100.00;100764.16;5568631;32;33217;-57
2023/08/17 05:39:06;;;;;;;13.50;12.10;;;;;;;22.59;100.00;100757.19;5569015;31;33564;-56
2023/08/17 05:42:09;;;;;;;13.88;12.55;;;;;;;22.65;100.00;100753.03;5569823;31;34376;-57
2023/08/17 05:45:12;;;;;;;14.98;13.38;;;;;;;22.69;100.00;100753.94;5567631;32;34229;-57
2023/08/17 05:48:14;;;;;;;15.20;12.68;;;;;;;22.80;100.00;100757.69;5563569;32;34500;-57
2023/08/17 05:51:16;;;;;;;14.38;12.85;;;;;;;22.95;100.00;100761.63;5569810;32;34357;-57
2023/08/17 05:54:19;;;;;;;13.27;11.73;;;;;;;23.02;100.00;100755.53;5569914;32;33528;-57
2023/08/17 05:57:22;;;;;;;15.70;13.38;;;;;;;23.21;100.00;100759.09;5567332;32;34304;-56
2023/08/17 06:00:24;;;;;;;16.17;14.02;;;;;;;23.30;100.00;100761.63;5569676;32;34282;-57
2023/08/17 06:03:27;;;;;;;15.00;12.48;;;;;;;23.34;100.00;100759.75;5568626;32;33701;-57
2023/08/17 06:06:29;;;;;;;15.73;14.18;;;;;;;23.48;100.00;100750.25;5569548;32;33332;-57
2023/08/17 06:09:32;;;;;;;16.15;13.15;;;;;;;23.58;100.00;100757.94;5567790;32;34044;-57
2023/08/17 06:12:34;;;;;;;14.10;11.68;;;;;;;23.68;97.92;100743.72;5567655;32;33039;-56
2023/08/17 06:15:37;;;;;;;15.05;12.95;;;;;;;23.68;95.01;100747.22;5552710;32;33884;-57
2023/08/17 06:18:39;;;;;;;14.18;10.85;;;;;;;23.63;98.11;100752.16;5560673;32;33761;-57
2023/08/17 06:21:41;;;;;;;13.30;10.80;;;;;;;23.65;92.69;100752.59;5569383;32;33657;-57
2023/08/17 06:24:44;;;;;;;30.83;12.65;;;;;;;23.58;93.28;100749.72;5569223;32;34213;-56
2023/08/17 06:27:49;;;;;;;12.70;11.40;;;;;;;23.43;93.66;100748.63;5564296;32;33593;-57
2023/08/17 06:30:53;;;;;;;13.70;12.20;;;;;;;23.37;96.26;100756.31;5566133;32;33946;-57
2023/08/17 06:33:56;;;;;;;14.57;12.02;;;;;;;23.32;98.18;100744.88;5568583;32;33519;-57
2023/08/17 06:37:00;;;;;;;14.95;11.10;;;;;;;23.28;100.00;100742.06;5567482;32;33171;-57
2023/08/17 06:40:05;;;;;;;13.82;10.85;;;;;;;23.35;100.00;100736.72;5568691;32;33888;-57
2023/08/17 06:43:07;;;;;;;12.00;10.68;;;;;;;23.52;94.17;100738.25;5566205;32;33829;-57
2023/08/17 06:46:10;;;;;;;12.13;10.80;;;;;;;23.61;88.58;100729.84;5568850;32;33710;-57
2023/08/17 06:49:12;;;;;;;15.15;10.93;;;;;;;23.67;92.42;100731.94;5569015;32;33662;-57
2023/08/17 06:52:15;;;;;;;17.12;11.10;;;;;;;23.52;96.00;100723.78;5569084;32;34284;-57
2023/08/17 06:55:17;;;;;;;11.52;10.40;;;;;;;23.54;96.37;100726.94;5567460;32;34455;-56
2023/08/17 06:58:19;;;;;;;12.27;10.68;;;;;;;23.44;95.42;100733.78;5568600;32;33607;-57
2023/08/17 07:01:22;;;;;;;11.75;10.20;;;;;;;23.44;96.56;100737.31;5567617;32;33641;-57
2023/08/17 07:04:24;;;;;;;12.68;11.25;;;;;;;23.52;92.57;100740.22;5568428;32;33699;-57
2023/08/17 07:07:27;;;;;;;14.95;10.40;;;;;;;23.57;93.04;100748.13;5568240;32;33838;-56
2023/08/17 07:10:29;;;;;;;12.32;9.23;;;;;;;23.61;85.20;100749.00;5567955;32;34319;-57
2023/08/17 07:13:32;;;;;;;11.23;9.45;;;;;;;23.60;83.62;100745.44;5568071;32;33675;-58
2023/08/17 07:16:34;;;;;;;10.93;9.60;;;;;;;23.58;87.61;100749.72;5566387;32;32904;-57
2023/08/17 07:19:36;;;;;;;11.95;9.68;;;;;;;23.59;90.49;100749.34;5565322;32;34283;-57
2023/08/17 07:22:59;;;;;;;11.00;9.80;;;;;;;23.67;85.82;100744.81;5566577;32;33248;-57
2023/08/17 07:26:01;;;;;;;11.00;9.90;;;;;;;23.62;85.08;100753.31;5568796;32;33735;-56
2023/08/17 07:29:03;;;;;;;12.20;10.25;;;;;;;23.60;87.45;100750.13;5568037;31;34226;-56
2023/08/17 07:32:05;;;;;;;10.75;9.65;;;;;;;23.54;91.91;100751.56;5568472;32;33696;-57
2023/08/17 07:35:08;;;;;;;11.95;10.15;;;;;;;23.56;97.65;100757.50;5568659;32;33800;-56
2023/08/17 07:38:10;;;;;;;11.70;10.48;;;;;;;23.60;90.90;100758.34;5567956;32;33625;-57
2023/08/17 07:41:13;;;;;;;11.18;10.07;;;;;;;23.58;98.89;100750.50;5566350;32;34413;-57
2023/08/17 07:44:15;;;;;;;15.48;9.20;;;;;;;23.57;88.61;100757.12;5566149;32;33788;-56
2023/08/17 07:47:17;;;;;;;10.43;9.25;;;;;;;23.69;85.40;100753.50;5558004;32;33355;-56
2023/08/17 07:50:21;;;;;;;12.45;9.88;;;;;;;23.77;85.98;100755.22;5558595;32;33856;-56
2023/08/17 07:53:23;;;;;;;11.90;9.82;;;;;;;23.82;83.04;100751.41;5558276;32;34428;-56
2023/08/17 07:56:26;;;;;;;11.45;9.48;;;;;;;23.80;88.08;100746.28;5561014;32;33429;-58
2023/08/17 07:59:29;;;;;;;10.50;9.45;;;;;;;23.81;86.21;100758.03;5566794;32;33543;-57
2023/08/17 08:02:31;;;;;;;14.77;9.75;;;;;;;23.82;88.90;100754.16;5568114;32;33632;-56
2023/08/17 08:05:33;;;;;;;22.92;20.55;;;;;;;23.81;85.62;100747.88;5567866;32;33664;-56
2023/08/17 08:08:36;;;;;;;12.25;9.40;;;;;;;23.86;94.86;100749.53;5565991;32;33544;-58
2023/08/17 08:11:38;;;;;;;11.12;9.77;;;;;;;23.89;87.01;100746.06;5564698;32;33697;-56
2023/08/17 08:14:40;;;;;;;10.38;9.30;;;;;;;23.96;84.18;100746.19;5564682;32;33743;-57
2023/08/17 08:17:43;;;;;;;10.88;9.02;;;;;;;24.07;86.16;100752.69;5566972;32;34407;-56
2023/08/17 08:20:45;;;;;;;16.73;10.85;;;;;;;24.35;79.44;100744.19;5566893;32;33848;-56
2023/08/17 08:23:48;;;;;;;10.10;8.27;;;;;;;24.45;83.50;100742.81;5565763;32;34396;-57
2023/08/17 08:26:50;;;;;;;11.48;9.05;;;;;;;24.37;77.41;100730.91;5553560;32;33744;-56
2023/08/17 08:29:53;;;;;;;9.82;8.85;;;;;;;24.45;80.62;100731.84;5566412;32;33658;-59
2023/08/17 08:32:57;;;;;;;10.15;8.35;;;;;;;24.52;80.39;100733.91;5566826;32;33746;-56
2023/08/17 08:36:00;;;;;;;13.43;7.40;;;;;;;24.60;81.42;100743.84;5567480;32;33642;-56
2023/08/17 08:39:02;;;;;;;10.00;6.97;;;;;;;24.63;78.48;100745.06;5566568;32;33874;-57
2023/08/17 08:42:05;;;;;;;24.33;8.27;;;;;;;24.60;78.21;100746.56;5561704;32;34331;-56
2023/08/17 08:45:08;;;;;;;8.07;6.65;;;;;;;24.62;81.65;100747.00;5565103;32;33583;-56
2023/08/17 08:48:13;;;;;;;7.80;6.72;;;;;;;24.60;77.21;100746.56;5566777;32;33577;-56
2023/08/17 08:51:18;;;;;;;;;;;;;;;24.63;78.19;100747.78;5566966;32;33688;-57
2023/08/17 08:54:24;;;;;;;15.80;7.68;;;;;;;24.57;81.63;100741.84;5568398;32;34574;-56
2023/08/17 08:57:28;;;;;;;8.68;6.95;;;;;;;24.51;81.79;100746.06;5561838;32;33823;-56
2023/08/17 09:00:32;;;;;;;8.25;7.18;;;;;;;24.47;83.89;100746.00;5559990;32;33603;-56
2023/08/17 09:03:35;;;;;;;11.35;7.97;;;;;;;24.39;85.37;100741.50;5568370;32;33574;-56
2023/08/17 09:06:41;;;;;;;8.02;7.22;;;;;;;24.28;80.21;100749.53;5567181;32;33320;-57
2023/08/17 09:09:44;;;;;;;10.13;7.62;;;;;;;24.30;89.01;100741.72;5567512;32;33704;-56
2023/08/17 09:12:50;;;;;;;12.88;8.00;;;;;;;24.30;86.14;100739.00;5565080;32;34414;-56
2023/08/17 09:15:52;;;;;;;10.90;7.28;;;;;;;24.34;88.39;100737.12;5563973;32;34304;-57
2023/08/17 09:18:55;;;;;;;8.48;6.97;;;;;;;24.48;83.97;100742.09;5564303;32;33972;-56
2023/08/17 09:21:58;;;;;;;10.30;6.70;;;;;;;24.54;82.66;100740.62;5565995;32;34310;-57
2023/08/17 09:25:01;;;;;;;7.93;6.78;;;;;;;24.52;81.16;100731.97;5568954;31;34875;-57
2023/08/17 09:28:09;;;;;;;13.77;7.53;;;;;;;24.52;79.73;100731.19;5567919;31;33449;-56
2023/08/17 09:31:15;;;;;;;10.70;7.07;;;;;;;24.57;87.29;100725.41;5560289;32;34045;-56
2023/08/17 09:34:19;;;;;;;11.12;6.68;;;;;;;24.65;85.36;100729.03;5569582;32;34343;-56
2023/08/17 09:37:21;;;;;;;10.57;7.05;;;;;;;24.60;78.74;100724.66;5566589;32;33808;-56
2023/08/17 09:40:26;;;;;;;7.25;6.30;;;;;;;24.66;85.20;100720.44;5565751;32;34273;-56
2023/08/17 09:43:30;;;;;;;9.90;6.07;;;;;;;24.71;82.71;100716.62;5568811;32;33645;-56
2023/08/17 09:46:33;;;;;;;9.90;6.93;;;;;;;24.76;78.72;100711.59;5567824;32;34429;-56
2023/08/17 09:49:36;;;;;;;7.80;6.47;;;;;;;24.82;79.14;100710.12;5568387;32;33529;-56
2023/08/17 09:52:38;;;;;;;11.90;6.95;;;;;;;24.88;78.32;100707.06;5568535;32;33498;-56
2023/08/17 09:55:42;;;;;;;9.10;6.72;;;;;;;24.93;79.16;100707.53;5569350;32;34418;-56
2023/08/17 09:58:45;;;;;;;12.32;6.70;;;;;;;24.96;75.71;100706.00;5567866;32;33646;-57
2023/08/17 10:01:49;;;;;;;9.02;6.20;;;;;;;25.07;77.95;100707.75;5569375;32;33858;-57
2023/08/17 10:04:57;;;;;;;9.50;6.90;;;;;;;25.15;77.55;100705.13;5564506;32;33669;-56
2023/08/17 10:08:02;;;;;;;10.95;5.97;;;;;;;25.23;75.00;100704.03;5565878;32;33274;-57
2023/08/17 10:11:07;;;;;;;7.12;5.47;;;;;;;25.27;73.80;100700.22;5565932;32;32325;-56
2023/08/17 10:14:15;;;;;;;9.93;6.12;;;;;;;25.27;73.64;100702.94;5569010;32;33421;-56
2023/08/17 10:17:26;;;;;;;7.82;6.18;;;;;;;25.35;75.10;100711.28;5552621;32;33635;-56
2023/08/17 10:20:30;;;;;;;7.50;6.22;;;;;;;25.47;72.83;100702.81;5555935;32;33650;-57
2023/08/17 10:23:34;;;;;;;9.07;6.35;;;;;;;25.47;72.51;100703.59;5569163;32;34394;-56
2023/08/17 10:26:37;;;;;;;9.23;6.30;;;;;;;25.41;73.60;100698.81;5568819;32;33703;-57
2023/08/17 10:29:40;;;;;;;8.55;6.25;;;;;;;25.49;73.05;100693.00;5569235;32;33701;-56
2023/08/17 10:32:46;;;;;;;10.43;7.03;;;;;;;25.55;74.23;100696.22;5569035;32;34225;-56
2023/08/17 10:35:50;;;;;;;7.60;6.30;;;;;;;25.63;70.23;100695.16;5555023;32;34078;-57
2023/08/17 10:39:22;;;;;;;9.18;6.07;;;;;;;25.65;71.95;100698.31;5567088;32;33721;-57
2023/08/17 10:42:34;;;;;;;8.73;5.87;;;;;;;25.76;71.86;100690.19;5567156;32;33649;-56
2023/08/17 10:45:40;;;;;;;9.38;6.10;;;;;;;25.79;71.56;100692.16;5559110;32;33839;-56
2023/08/17 10:48:45;;;;;;;15.75;5.30;;;;;;;25.91;69.20;100688.41;5565485;32;34293;-56
2023/08/17 10:52:03;;;;;;;8.45;5.97;;;;;;;25.86;68.97;100697.78;5569105;32;33603;-56
2023/08/17 10:55:09;;;;;;;8.68;5.03;;;;;;;25.89;70.09;100686.03;5568304;32;33618;-56
2023/08/17 10:58:12;;;;;;;8.82;5.43;;;;;;;25.90;70.32;100698.63;5567046;32;34296;-57
2023/08/17 11:01:38;;;;;;;8.63;5.62;;;;;;;25.84;70.63;100693.84;5568447;32;33434;-56
2023/08/17 11:04:50;;;;;;;11.40;5.97;;;;;;;25.82;69.89;100696.94;5568821;32;34209;-57
2023/08/17 11:07:52;;;;;;;7.15;5.82;;;;;;;25.75;69.25;100692.13;5568709;32;33685;-56
2023/08/17 11:11:12;;;;;;;6.43;5.82;;;;;;;25.81;69.95;100694.59;5568974;32;33728;-56
2023/08/17 11:14:14;;;;;;;7.22;6.20;;;;;;;25.95;70.63;100686.50;5568289;32;34286;-56
2023/08/17 11:17:20;;;;;;;7.75;5.80;;;;;;;26.02;69.13;100686.56;5568804;32;33957;-56
2023/08/17 11:20:23;;;;;;;6.97;5.62;;;;;;;25.92;69.70;100685.28;5568726;32;34397;-56
2023/08/17 11:23:29;;;;;;;7.93;5.30;;;;;;;25.99;69.97;100682.62;5568126;32;33644;-57
2023/08/17 11:26:31;;;;;;;6.78;5.53;;;;;;;25.99;68.74;100687.31;5568445;32;34359;-56
2023/08/17 11:29:37;;;;;;;;;;;;;;;25.98;69.93;100678.28;5568932;31;33625;-56
2023/08/17 11:32:45;;;;;;;320.35;35.50;;;;;;;26.02;71.11;100676.34;5568609;32;34581;-56
2023/08/17 11:35:49;;;;;;;10.10;6.30;;;;;;;26.02;70.92;100686.56;5568584;32;33883;-56
2023/08/17 11:38:52;;;;;;;8.03;6.27;;;;;;;26.10;68.23;100684.69;5568594;32;33698;-56
2023/08/17 11:41:54;;;;;;;7.87;6.03;;;;;;;26.11;68.56;100683.50;5567734;32;33670;-57
2023/08/17 11:44:59;;;;;;;9.75;6.00;;;;;;;26.19;68.12;100680.47;5568426;31;34630;-56
2023/08/17 11:48:03;;;;;;;8.63;6.35;;;;;;;26.25;68.33;100678.91;5567107;32;33353;-56
2023/08/17 11:51:06;;;;;;;6.65;5.95;;;;;;;26.23;67.96;100688.72;5568534;32;34001;-56
2023/08/17 11:54:09;;;;;;;9.10;6.35;;;;;;;26.16;67.62;100672.97;5568432;31;34366;-57
2023/08/17 11:57:11;;;;;;;7.12;6.37;;;;;;;26.13;68.01;100684.72;5568265;32;33623;-57
2023/08/17 12:00:21;;;;;;;7.03;6.32;;;;;;;26.14;69.15;100671.75;5568094;32;33674;-57
2023/08/17 12:03:24;;;;;;;8.00;6.53;;;;;;;26.12;67.32;100671.34;5567873;32;34652;-56
2023/08/17 12:06:27;;;;;;;11.43;6.35;;;;;;;26.14;68.87;100669.78;5561730;32;33705;-57
2023/08/17 12:09:32;;;;;;;9.80;6.32;;;;;;;26.15;69.72;100670.59;5548525;32;33266;-56
2023/08/17 12:12:37;;;;;;;8.68;6.20;;;;;;;26.16;68.33;100667.47;5548426;32;33617;-56
2023/08/17 12:15:40;;;;;;;9.13;6.47;;;;;;;26.20;68.45;100667.50;5548590;32;33768;-56
2023/08/17 12:18:51;;;;;;;6.53;5.80;;;;;;;26.19;67.18;100663.97;5548399;32;34160;-56
2023/08/17 12:21:54;;;;;;;6.15;5.50;;;;;;;26.20;65.50;100657.28;5548283;32;33635;-57
2023/08/17 12:24:56;;;;;;;6.43;5.28;;;;;;;26.28;67.68;100655.38;5548156;32;33830;-56
2023/08/17 12:28:00;;;;;;;7.60;5.95;;;;;;;26.33;67.04;100648.75;5549150;32;33588;-58
2023/08/17 12:31:03;;;;;;;8.05;5.75;;;;;;;26.39;66.04;100644.47;5550996;32;34345;-56
2023/08/17 12:34:05;;;;;;;7.03;6.00;;;;;;;26.52;63.74;100653.22;5550725;32;33672;-56
2023/08/17 12:37:12;;;;;;;11.00;5.32;;;;;;;26.52;65.08;100644.97;5550673;32;33721;-57
2023/08/17 12:40:15;;;;;;;6.72;5.78;;;;;;;26.58;61.99;100643.47;5565438;32;33580;-57
2023/08/17 12:43:17;;;;;;;13.35;6.75;;;;;;;26.49;66.56;100635.56;5568837;32;33836;-56
2023/08/17 12:46:19;;;;;;;8.15;7.30;;;;;;;26.44;67.55;100631.16;5568507;32;33755;-56
2023/08/17 12:49:23;;;;;;;7.28;5.85;;;;;;;26.43;66.48;100631.56;5569006;32;34293;-56
2023/08/17 12:52:27;;;;;;;8.15;6.35;;;;;;;26.42;67.46;100622.53;5568150;32;33644;-56
2023/08/17 12:55:30;;;;;;;6.93;6.15;;;;;;;26.49;64.65;100616.31;5570210;32;33724;-56
2023/08/17 12:58:32;;;;;;;8.82;5.93;;;;;;;26.51;64.42;100610.44;5570085;32;34319;-56
2023/08/17 13:01:35;;;;;;;8.73;6.25;;;;;;;26.54;64.42;100609.66;5570150;32;33767;-56
2023/08/17 13:04:37;;;;;;;7.57;5.90;;;;;;;26.71;63.43;100608.97;5569092;32;33635;-57
2023/08/17 13:07:39;;;;;;;7.70;6.35;;;;;;;26.77;62.61;100610.19;5568825;32;33828;-56
2023/08/17 13:10:42;;;;;;;13.02;6.62;;;;;;;26.76;66.69;100596.84;5569964;32;34412;-56
2023/08/17 13:13:44;;;;;;;7.47;5.95;;;;;;;26.70;64.86;100599.16;5570332;32;34456;-57
2023/08/17 13:16:47;;;;;;;7.53;6.10;;;;;;;26.68;63.22;100596.00;5569955;32;33755;-57
2023/08/17 13:19:49;;;;;;;8.45;5.95;;;;;;;26.80;62.44;100594.88;5570156;32;33707;-57
2023/08/17 13:22:51;;;;;;;7.40;6.20;;;;;;;26.84;62.50;100587.44;5569959;32;33271;-57
2023/08/17 13:25:54;;;;;;;7.18;6.22;;;;;;;26.78;64.11;100587.00;5570179;32;33995;-56
2023/08/17 13:28:56;;;;;;;8.90;6.60;;;;;;;26.70;63.87;100594.44;5569925;32;33933;-56
2023/08/17 13:31:58;;;;;;;9.43;6.45;;;;;;;26.60;65.19;100591.62;5570118;32;34266;-56
2023/08/17 13:35:01;;;;;;;10.57;6.97;;;;;;;26.67;66.04;100583.44;5570137;32;34388;-57
2023/08/17 13:38:04;;;;;;;7.65;6.80;;;;;;;26.63;64.53;100579.87;5569713;32;34408;-57
2023/08/17 13:41:06;;;;;;;7.85;6.37;;;;;;;26.66;65.59;100581.84;5569696;32;33601;-56
2023/08/17 13:44:09;;;;;;;9.30;6.50;;;;;;;26.76;64.92;100586.63;5569749;32;34343;-57
2023/08/17 13:47:12;;;;;;;9.55;6.85;;;;;;;26.75;63.96;100587.00;5569632;32;34050;-56
2023/08/17 13:50:14;;;;;;;10.05;6.70;;;;;;;26.78;64.12;100586.22;5569596;32;34223;-56
2023/08/17 13:53:17;;;;;;;10.18;7.43;;;;;;;26.67;64.64;100567.72;5569901;32;33750;-56
2023/08/17 13:56:19;;;;;;;7.43;6.40;;;;;;;26.66;66.61;100568.09;5569678;32;33708;-56
2023/08/17 13:59:22;;;;;;;11.18;6.53;;;;;;;26.62;67.90;100575.53;5569893;32;33621;-57
2023/08/17 14:02:24;;;;;;;10.68;7.28;;;;;;;26.60;68.64;100569.66;5569770;32;33654;-56
2023/08/17 14:05:29;;;;;;;11.77;6.40;;;;;;;26.61;65.60;100577.50;5569421;32;33584;-56
2023/08/17 14:08:31;;;;;;;8.85;7.53;;;;;;;26.54;64.93;100571.97;5569499;32;34323;-56
2023/08/17 14:11:34;;;;;;;11.60;6.90;;;;;;;26.50;68.54;100582.16;5569896;32;33706;-56
2023/08/17 14:14:36;;;;;;;11.30;7.03;;;;;;;26.47;67.58;100580.94;5569743;32;34363;-56
2023/08/17 14:17:39;;;;;;;9.38;7.43;;;;;;;26.48;68.32;100579.00;5569632;32;33571;-56
2023/08/17 14:20:41;;;;;;;9.48;7.90;;;;;;;26.46;67.41;100582.09;5569599;32;33776;-57
2023/08/17 14:23:44;;;;;;;10.80;7.60;;;;;;;26.48;67.20;100584.47;5569528;32;34458;-57
